• Join FlightAware (Why Join?)
  • Login
  • US Flag 
10:03PM EDT


 

Airport Tracker/Info


-or-


 

Live Flight TrackerFlight Track Log ✈ SCX504 ✈ 10-May-2012 ✈ KDFW - KMSP

Flight Track Log - Related Links

Times and Time Zones

All times are in EDT time to prevent confusion due to time zone crossing. See the SCX504 flight status page for this flight to view local times or setup timezone preferences in your user account.

Time Position Orientation Groundspeed Altitude Reporting Facility
EDT Latitude Longitude Course Direction KTS MPH feet Rate Location/Type
07:03PM 32.8769 -97.0514 188° South 161 185 1,800  Level FAA TRACON SMA TRACON (SMA)
07:04PM 32.8469 -97.0564 204° Southwest 180 207 2,600 1,620 Climbing FAA TRACON SMA TRACON (SMA)
07:04PM 32.8092 -97.0761 268° West 226 260 4,000 1,920 Climbing FAA TRACON SMA TRACON (SMA)
07:05PM 32.8078 -97.1267 339° North 275 316 5,200 2,100 Climbing FAA TRACON SMA TRACON (SMA)
07:06PM 32.8558 -97.1492 North 290 334 6,800 2,460 Climbing FAA TRACON SMA TRACON (SMA)
07:06PM 32.9161 -97.1475 North 322 371 8,500 2,460 Climbing FAA TRACON SMA TRACON (SMA)
07:07PM 32.9739 -97.1450 North 336 387 10,200 2,520 Climbing FAA TRACON SMA TRACON (SMA)
07:08PM 33.0417 -97.1394 North 354 407 11,900 2,400 Climbing FAA TRACON SMA TRACON (SMA)
07:08PM 33.1036 -97.1350 North 363 418 13,400 2,580 Climbing FAA TRACON SMA TRACON (SMA)
07:09PM 33.1778 -97.1297 North 386 444 15,400 3,180 Climbing FAA TRACON SMA TRACON (SMA)
07:10PM 33.2517 -97.1247 North 383 441 17,700 3,060 Climbing FAA TRACON SMA TRACON (SMA)
07:10PM 33.3175 -97.1208 North 388 447 19,500 2,460 Climbing FAA TRACON SMA TRACON (SMA)
07:11PM 33.3950 -97.1156 North 402 463 21,100 2,340 Climbing FAA TRACON SMA TRACON (SMA)
07:12PM 33.4647 -97.1100 North 409 471 22,600 2,220 Climbing FAA TRACON SMA TRACON (SMA)
07:12PM 33.5447 -97.1006 North 417 480 24,100 2,100 Climbing FAA TRACON SMA TRACON (SMA)
07:13PM 33.6264 -97.0911 North 427 491 25,400 1,920 Climbing FAA TRACON SMA TRACON (SMA)
07:14PM 33.7086 -97.0808 North 430 495 26,700 1,980 Climbing FAA TRACON SMA TRACON (SMA)
07:14PM 33.7828 -97.0703 North 433 498 28,100 1,500 Climbing FAA TRACON SMA TRACON (SMA)
07:15PM 33.8669 -97.0625 North 440 506 28,700 840 Climbing FAA TRACON SMA TRACON (SMA)
07:16PM 34.0308 -97.0375 12° North 455 524 29,800 1,020 Climbing Fort Worth Center
07:17PM 34.1603 -97.0044 13° North 466 536 31,000 1,320 Climbing Fort Worth Center
07:18PM 34.2978 -96.9661 14° North 478 550 32,500 1,620 Climbing Fort Worth Center
07:19PM 34.4292 -96.9250 13° North 489 563 34,300 1,200 Climbing Fort Worth Center
07:20PM 34.5519 -96.8917 13° North 489 563 35,000 360 Climbing Fort Worth Center
07:21PM 34.6853 -96.8528 13° North 489 563 35,100 720 Climbing Fort Worth Center
07:22PM 34.8208 -96.8142 15° North 489 563 36,500 1,380 Climbing Fort Worth Center
07:23PM 34.9500 -96.7725 13° North 484 557 37,900 1,200 Climbing Fort Worth Center
07:24PM 35.0833 -96.7361 14° North 484 557 38,900 540 Climbing Fort Worth Center
07:25PM 35.2103 -96.6969 14° North 484 557 39,000  Climbing Fort Worth Center
07:27PM 35.4997 -96.6108 13° North 468 539 39,000  Level Kansas City Center
07:28PM 35.6275 -96.5733 13° North 473 544 39,000  Level Kansas City Center
07:29PM 35.7556 -96.5383 13° North 473 544 39,000  Level Kansas City Center
07:30PM 35.8833 -96.5006 13° North 468 539 39,000  Level Kansas City Center
07:31PM 36.0114 -96.4628 13° North 468 539 39,000  Level Kansas City Center
07:32PM 36.1350 -96.4272 13° North 468 539 39,000  Level Kansas City Center
07:33PM 36.2650 -96.3892 15° North 468 539 39,000  Level Kansas City Center
07:34PM 36.3908 -96.3483 14° North 473 544 39,000  Level Kansas City Center
07:35PM 36.5186 -96.3100 14° North 473 544 39,000 480 Level Kansas City Center
07:36PM 36.6444 -96.2714 13° North 466 536 40,000 480 Climbing Kansas City Center
07:37PM 36.7681 -96.2356 14° North 461 531 40,000  Level Kansas City Center
07:38PM 36.9019 -96.1944 14° North 451 519 40,000  Level Kansas City Center
07:39PM 37.0258 -96.1553 14° North 451 519 40,000  Level Kansas City Center
07:40PM 37.1450 -96.1189 14° North 451 519 40,000  Level Kansas City Center
07:41PM 37.2686 -96.0797 14° North 451 519 40,000  Level Kansas City Center
07:42PM 37.3881 -96.0431 14° North 451 519 40,000  Level Kansas City Center
07:43PM 37.5094 -96.0061 15° North 451 519 40,000  Level Kansas City Center
07:44PM 37.6289 -95.9667 13° North 445 512 40,000  Level Kansas City Center
07:45PM 37.7503 -95.9322 15° North 439 505 40,000 -240 Level Kansas City Center
07:46PM 37.8697 -95.8925 13° North 439 505 39,600 -540 Descending Kansas City Center
07:47PM 37.9806 -95.8603 14° North 445 512 39,000 -300 Descending Kansas City Center
07:48PM 38.1000 -95.8228 13° North 445 512 39,000  Level Kansas City Center
07:49PM 38.2339 -95.7828 15° North 439 505 39,000  Level Kansas City Center
07:50PM 38.3531 -95.7425 14° North 439 505 39,000  Level Kansas City Center
07:51PM 38.4639 -95.7072 14° North 445 512 39,000  Level Kansas City Center
07:52PM 38.5831 -95.6694 15° North 445 512 39,000  Level Kansas City Center
07:53PM 38.7211 -95.6236 13° North 451 519 39,000  Level Kansas City Center
07:54PM 38.8425 -95.5881 15° North 451 519 39,000  Level Kansas City Center
07:55PM 38.9636 -95.5472 15° North 451 519 39,000  Level Kansas City Center
07:56PM 39.0767 -95.5086 12° North 456 525 39,000  Level Kansas City Center
07:57PM 39.2144 -95.4706 17° North 457 526 39,000  Level Kansas City Center
07:58PM 39.3358 -95.4236 14° North 462 532 39,000  Level Kansas City Center
07:59PM 39.4589 -95.3850 15° North 454 522 39,000  Level Kansas City Center
08:00PM 39.5822 -95.3433 14° North 454 522 39,000  Level Kansas City Center
08:02PM 39.8019 -95.2706 14° North 454 522 39,000  Level Minneapolis Center
08:03PM 39.9231 -95.2308 16° North 454 522 39,000  Level Minneapolis Center
08:04PM 40.0444 -95.1856 14° North 454 522 39,000  Level Minneapolis Center
08:05PM 40.1656 -95.1456 14° North 454 522 39,000  Level Minneapolis Center
08:06PM 40.2825 -95.1081 14° North 449 517 39,000  Level Minneapolis Center
08:07PM 40.4039 -95.0678 21° North 443 510 39,000  Level Minneapolis Center
08:08PM 40.5192 -95.0081 22° Northeast 443 510 39,000  Level Minneapolis Center
08:09PM 40.6342 -94.9481 19° North 443 510 39,000  Level Minneapolis Center
08:10PM 40.7514 -94.8933 22° Northeast 443 510 39,000  Level Minneapolis Center
08:11PM 40.8708 -94.8306 21° North 443 510 39,000 -120 Level Minneapolis Center
08:12PM 40.9881 -94.7700 21° North 449 517 38,800 -600 Descending Minneapolis Center
08:13PM 41.1033 -94.7119 22° Northeast 449 517 37,800 -900 Descending Minneapolis Center
08:14PM 41.2183 -94.6508 21° North 449 517 37,000 -420 Descending Minneapolis Center
08:15PM 41.3333 -94.5925 21° North 449 517 37,000  Level Minneapolis Center
08:16PM 41.4483 -94.5339 21° North 449 517 37,000 -60 Level Minneapolis Center
08:17PM 41.5633 -94.4747 21° North 449 517 36,900 -600 Descending Minneapolis Center
08:18PM 41.6828 -94.4131 22° Northeast 449 517 35,900 -960 Descending Minneapolis Center
08:19PM 41.7975 -94.3508 20° North 449 517 35,000 -480 Descending Minneapolis Center
08:20PM 41.9167 -94.2914 22° Northeast 449 517 35,000 -180 Level Minneapolis Center
08:21PM 42.0317 -94.2286 21° North 449 517 34,700 -660 Descending Minneapolis Center
08:22PM 42.1508 -94.1658 22° Northeast 449 517 33,700 -900 Descending Minneapolis Center
08:23PM 42.2761 -94.0975 21° North 444 511 33,000 -360 Descending Minneapolis Center
08:24PM 42.3931 -94.0369 22° Northeast 444 511 33,000 -300 Level Minneapolis Center
08:25PM 42.5100 -93.9733 16° North 444 511 32,500 -780 Descending Minneapolis Center
08:26PM 42.6183 -93.9319 12° North 451 519 31,500 -780 Descending Minneapolis Center
08:27PM 42.7433 -93.8964 12° North 446 513 31,000 -300 Descending Minneapolis Center
08:28PM 42.8664 -93.8606 11° North 451 519 31,000 -240 Level Minneapolis Center
08:29PM 42.9914 -93.8275 13° North 451 519 30,600 -660 Descending Minneapolis Center
08:30PM 43.1164 -93.7883 11° North 459 528 29,700 -960 Descending Minneapolis Center
08:31PM 43.2375 -93.7550 11° North 448 516 28,700 -1,080 Descending Minneapolis Center
08:32PM 43.3583 -93.7214 13° North 448 516 27,600 -1,080 Descending Minneapolis Center
08:33PM 43.4769 -93.6847 12° North 443 510 26,600 -1,260 Descending Minneapolis Center
08:34PM 43.5978 -93.6481 11° North 437 503 25,100 -2,040 Descending Minneapolis Center
08:35PM 43.7106 -93.6169 12° North 421 484 22,600 -2,400 Descending Minneapolis Center
08:36PM 43.8189 -93.5856 12° North 405 466 20,300 -2,340 Descending Minneapolis Center
08:37PM 43.9314 -93.5514 15° North 381 438 18,000 -2,580 Descending Minneapolis Center
08:38PM 43.9922 -93.5286 10° North 378 435 16,300 -2,580 Descending FAA TRACON SMA TRACON (SMA)
08:39PM 44.0556 -93.5136 13° North 374 430 14,800 -2,340 Descending FAA TRACON SMA TRACON (SMA)
08:39PM 44.1256 -93.4917 11° North 373 429 13,200 -2,460 Descending FAA TRACON SMA TRACON (SMA)
08:40PM 44.1956 -93.4728 20° North 368 423 11,600 -1,680 Descending FAA TRACON SMA TRACON (SMA)
08:41PM 44.2536 -93.4436 26° Northeast 361 415 11,000 -480 Descending FAA TRACON SMA TRACON (SMA)
08:41PM 44.3150 -93.4011 26° Northeast 354 407 11,000  Level FAA TRACON SMA TRACON (SMA)
08:42PM 44.3758 -93.3592 26° Northeast 352 405 11,000  Level FAA TRACON SMA TRACON (SMA)
08:43PM 44.4300 -93.3217 27° Northeast 354 407 11,000  Level FAA TRACON SMA TRACON (SMA)
08:43PM 44.4906 -93.2789 27° Northeast 352 405 11,000  Level FAA TRACON SMA TRACON (SMA)
08:44PM 44.5508 -93.2358 26° Northeast 350 403 11,000  Level FAA TRACON SMA TRACON (SMA)
08:45PM 44.6019 -93.2003 North 333 383 11,000  Level FAA TRACON SMA TRACON (SMA)
08:45PM 44.6592 -93.1978 334° Northwest 314 361 11,000 -600 Level FAA TRACON SMA TRACON (SMA)
08:46PM 44.7089 -93.2319 336° Northwest 284 327 10,200 -1,320 Descending FAA TRACON SMA TRACON (SMA)
08:47PM 44.7522 -93.2597 335° Northwest 280 322 9,300 -1,500 Descending FAA TRACON SMA TRACON (SMA)
08:47PM 44.8014 -93.2919 314° West 282 325 8,200 -1,680 Descending FAA TRACON SMA TRACON (SMA)
08:48PM 44.8369 -93.3439 306° West 264 304 7,100 -1,980 Descending FAA TRACON SMA TRACON (SMA)
08:49PM 44.8622 -93.3925 332° Northwest 249 287 5,600 -2,280 Descending FAA TRACON SMA TRACON (SMA)
08:49PM 44.9028 -93.4225 43° Northeast 265 305 4,100 -1,380 Descending FAA TRACON SMA TRACON (SMA)
08:50PM 44.9314 -93.3844 92° East 240 276 3,800 -840 Descending FAA TRACON SMA TRACON (SMA)
08:51PM 44.9303 -93.3367 119° Southeast 181 208 3,000 -1,380 Descending FAA TRACON SMA TRACON (SMA)
08:51PM 44.9161 -93.3006 121° Southeast 149 171 2,000 -1,200 Descending FAA TRACON SMA TRACON (SMA)
08:52PM 44.9036 -93.2714 121° Southeast 141 162 1,400 -780 Descending FAA TRACON SMA TRACON (SMA)
08:53PM 44.8908 -93.2419 121° Southeast 141 162 1,000 -600 Descending FAA TRACON SMA TRACON (SMA)